Time;durP1;ratioP1;P1;durP2;ratioP2;P2;SDS_P1;SDS_P2;PMS_P1;PMS_P2;Temp;Humidity;BMP_temperature;BMP_pressure;BME280_temperature;BME280_humidity;BME280_pressure;Samples;Min_cycle;Max_cycle;Signal;HPM_P1;HPM_P2
2022/12/22 03:27:08;;;;;;;26.53;15.17;;;;;;;-3.04;100.00;100964.63;4991103;28;20409;-74
2022/12/22 03:29:37;;;;;;;24.70;15.37;;;;;;;-3.05;100.00;100955.25;4991198;28;20035;-73
2022/12/22 03:32:02;;;;;;;22.13;13.30;;;;;;;-3.27;100.00;100921.19;4991427;28;20038;-74
2022/12/22 03:34:28;;;;;;;23.87;13.70;;;;;;;-3.02;100.00;100960.63;4991403;28;20054;-73
2022/12/22 03:36:53;;;;;;;23.50;14.20;;;;;;;-2.98;100.00;100955.13;4991358;28;20104;-73
2022/12/22 03:39:18;;;;;;;23.47;14.00;;;;;;;-3.13;100.00;100917.53;4990931;28;20117;-73
2022/12/22 03:47:52;;;;;;;23.10;14.37;;;;;;;-2.86;100.00;100957.97;5030883;28;20048;-73
2022/12/22 03:50:18;;;;;;;22.77;14.00;;;;;;;-2.77;100.00;100953.81;5030682;28;20416;-72
2022/12/22 03:52:43;;;;;;;24.77;14.43;;;;;;;-2.74;100.00;100951.59;5030502;28;20029;-73
2022/12/22 03:55:08;;;;;;;26.70;13.60;;;;;;;-2.69;100.00;100952.94;5030380;28;20025;-72
2022/12/22 03:57:34;;;;;;;23.00;13.33;;;;;;;-2.66;100.00;100959.94;5030312;28;20037;-72
2022/12/22 03:59:59;;;;;;;22.07;13.60;;;;;;;-2.65;100.00;100964.25;5030671;28;20025;-72
2022/12/22 04:02:25;;;;;;;20.80;13.17;;;;;;;-3.06;100.00;100903.88;5030427;28;20454;-73
2022/12/22 04:04:50;;;;;;;24.90;13.90;;;;;;;-2.88;100.00;100929.13;5030690;28;20453;-73
2022/12/22 04:07:15;;;;;;;24.50;14.13;;;;;;;-2.90;100.00;100921.41;4979157;28;20545;-73
2022/12/22 04:12:53;;;;;;;23.23;13.33;;;;;;;-2.62;100.00;100959.47;5030335;28;20546;-73
2022/12/22 04:15:10;;;;;;;24.87;13.33;;;;;;;-2.52;100.00;100961.25;5034284;28;20056;-74
2022/12/22 04:17:35;;;;;;;25.10;13.47;;;;;;;-2.50;100.00;100960.66;5034066;28;20464;-73
2022/12/22 04:20:01;;;;;;;28.73;14.70;;;;;;;-2.74;100.00;100915.31;5033770;28;20116;-73
2022/12/22 04:22:26;;;;;;;21.10;13.90;;;;;;;-2.67;100.00;100953.09;5033577;28;20113;-73
2022/12/22 04:24:52;;;;;;;26.70;14.30;;;;;;;-2.87;100.00;100941.91;5033769;28;20037;-74
2022/12/22 04:27:17;;;;;;;26.07;16.00;;;;;;;-2.91;100.00;100956.66;5013028;28;20092;-74
2022/12/22 04:29:42;;;;;;;24.73;15.63;;;;;;;-2.90;100.00;100948.28;5013517;28;20483;-74
2022/12/22 04:32:08;;;;;;;27.13;14.57;;;;;;;-2.88;100.00;100935.06;5013437;28;20499;-74
2022/12/22 04:34:33;;;;;;;22.63;14.63;;;;;;;-2.69;100.00;100949.50;5013820;28;20026;-74
2022/12/22 04:36:59;;;;;;;23.27;13.70;;;;;;;-2.70;100.00;100930.06;5013712;28;20037;-73
2022/12/22 04:39:24;;;;;;;24.23;13.73;;;;;;;-2.68;100.00;100938.66;5003642;28;20042;-74
2022/12/22 04:41:49;;;;;;;26.30;13.87;;;;;;;-2.58;100.00;100948.91;4999895;28;20488;-74
2022/12/22 04:44:15;;;;;;;26.93;14.03;;;;;;;-2.54;100.00;100942.50;5013524;28;20133;-74
2022/12/22 04:46:40;;;;;;;21.97;13.90;;;;;;;-2.50;100.00;100942.09;5013462;28;20032;-74
2022/12/22 04:49:05;;;;;;;23.20;14.23;;;;;;;-2.72;100.00;100901.19;5013719;28;20403;-74
2022/12/22 04:51:31;;;;;;;21.10;13.47;;;;;;;-2.54;100.00;100950.09;5013078;28;20026;-73
2022/12/22 04:53:56;;;;;;;25.13;13.83;;;;;;;-2.52;100.00;100949.50;5013717;28;20499;-73
2022/12/22 04:56:22;;;;;;;24.57;14.30;;;;;;;-2.49;100.00;100951.47;5013687;28;20030;-72
2022/12/22 04:58:47;;;;;;;21.00;13.30;;;;;;;-2.93;100.00;100863.00;5012470;28;20029;-72
2022/12/22 05:01:15;;;;;;;25.80;13.23;;;;;;;-2.78;100.00;100917.56;5013543;28;20484;-73
2022/12/22 05:03:42;;;;;;;24.20;14.17;;;;;;;-2.84;100.00;100936.25;5013223;28;20393;-73
2022/12/22 05:06:07;;;;;;;24.47;14.07;;;;;;;-2.94;100.00;100944.56;5006623;28;20049;-74
2022/12/22 05:08:33;;;;;;;22.33;13.40;;;;;;;-2.92;100.00;100940.56;4996805;28;20464;-74
2022/12/22 05:10:58;;;;;;;22.10;14.20;;;;;;;-2.93;100.00;100926.16;4993362;28;20039;-74
2022/12/22 05:13:24;;;;;;;21.37;13.33;;;;;;;-2.83;100.00;100931.38;4993461;28;20034;-74
2022/12/22 05:15:49;;;;;;;22.50;13.77;;;;;;;-3.11;100.00;100879.78;5001261;28;20030;-74
2022/12/22 05:18:15;;;;;;;23.23;12.57;;;;;;;-2.79;100.00;100930.94;4994412;28;20035;-73
2022/12/22 05:20:40;;;;;;;22.93;13.57;;;;;;;-2.77;100.00;100943.72;5012170;28;20037;-74
2022/12/22 05:23:06;;;;;;;27.17;14.43;;;;;;;-2.77;100.00;100941.19;5010063;28;20033;-74
2022/12/22 05:25:31;;;;;;;31.93;17.10;;;;;;;-2.89;100.00;100938.38;5012600;28;20022;-73
2022/12/22 05:27:57;;;;;;;30.37;17.27;;;;;;;-2.96;100.00;100944.44;5012987;28;20026;-73
2022/12/22 05:30:22;;;;;;;26.10;14.93;;;;;;;-3.13;100.00;100950.38;4995453;28;20030;-73
2022/12/22 05:32:48;;;;;;;22.27;12.97;;;;;;;-3.08;100.00;100953.31;5012796;28;20084;-73
2022/12/22 05:35:14;;;;;;;26.37;13.70;;;;;;;-3.00;100.00;100952.47;4991490;28;20448;-73
2022/12/22 05:37:39;;;;;;;23.20;13.10;;;;;;;-2.99;100.00;100964.34;5012831;28;20036;-73
2022/12/22 05:40:06;;;;;;;22.47;13.27;;;;;;;-2.97;100.00;100964.50;4997249;28;20036;-73
2022/12/22 05:42:34;;;;;;;26.33;14.80;;;;;;;-3.21;100.00;100931.03;5008391;28;20022;-73
2022/12/22 05:45:04;;;;;;;25.60;13.87;;;;;;;-3.00;100.00;100964.22;4975203;28;20066;-73
2022/12/22 05:47:30;;;;;;;32.27;17.30;;;;;;;-3.26;100.00;100957.47;4993004;28;20034;-73
2022/12/22 05:49:55;;;;;;;27.53;15.37;;;;;;;-3.37;100.00;100970.63;5005149;28;20443;-73
2022/12/22 05:52:21;;;;;;;26.83;14.87;;;;;;;-3.46;100.00;100970.63;5011296;28;20038;-74
2022/12/22 05:54:46;;;;;;;29.60;15.43;;;;;;;-3.62;100.00;100950.50;5010550;28;20026;-74
2022/12/22 05:57:11;;;;;;;26.33;15.53;;;;;;;-3.65;100.00;100923.31;5008736;28;20069;-75
2022/12/22 05:59:37;;;;;;;27.37;17.33;;;;;;;-3.35;100.00;100965.00;5004777;28;20022;-73
2022/12/22 06:02:02;;;;;;;23.97;14.30;;;;;;;-3.31;100.00;100966.22;5005778;28;20108;-76
2022/12/22 06:04:27;;;;;;;24.80;14.53;;;;;;;-3.21;100.00;100971.44;4995240;28;20030;-77
2022/12/22 06:06:53;;;;;;;25.93;14.67;;;;;;;-3.18;100.00;100971.72;5011456;28;20034;-74
2022/12/22 06:09:18;;;;;;;25.67;15.03;;;;;;;-3.08;100.00;100968.47;5011236;28;20030;-74
2022/12/22 06:11:44;;;;;;;32.97;15.13;;;;;;;-3.08;100.00;100963.44;5008804;28;20038;-76
2022/12/22 06:14:09;;;;;;;26.47;14.43;;;;;;;-2.99;100.00;100974.47;5000239;28;20030;-76
2022/12/22 06:16:34;;;;;;;27.77;16.70;;;;;;;-3.02;100.00;100978.31;4993174;28;20026;-74
2022/12/22 06:19:00;;;;;;;29.30;17.03;;;;;;;-3.04;100.00;100973.13;4990811;28;20026;-73
2022/12/22 06:21:25;;;;;;;23.43;15.43;;;;;;;-3.13;100.00;100969.66;4990915;28;20040;-75
2022/12/22 06:23:53;;;;;;;30.10;16.53;;;;;;;-3.75;100.00;100867.59;4991048;28;20058;-73
2022/12/22 06:26:19;;;;;;;24.60;14.93;;;;;;;-3.04;100.00;100982.31;4991006;28;20117;-73
2022/12/22 06:28:44;;;;;;;27.27;14.60;;;;;;;-2.95;100.00;100985.75;4991216;28;20556;-72
2022/12/22 06:31:11;;;;;;;26.33;13.97;;;;;;;-2.95;100.00;100973.13;4991038;28;20080;-74
2022/12/22 06:33:37;;;;;;;22.83;13.63;;;;;;;-3.02;100.00;100951.41;4990622;28;20034;-73
2022/12/22 06:36:07;;;;;;;26.83;14.60;;;;;;;-2.77;100.00;100989.19;4990690;28;20029;-73
2022/12/22 06:38:33;;;;;;;26.63;14.53;;;;;;;-2.86;100.00;100994.25;4990609;28;20034;-75
2022/12/22 06:40:58;;;;;;;25.97;15.10;;;;;;;-2.77;100.00;100990.09;4990820;28;20025;-76
2022/12/22 06:43:24;;;;;;;26.47;15.47;;;;;;;-2.67;100.00;100991.00;4990250;28;20030;-74
2022/12/22 06:45:50;;;;;;;27.27;15.43;;;;;;;-2.72;100.00;100988.00;4990581;28;20034;-75
2022/12/22 06:48:16;;;;;;;25.73;14.43;;;;;;;-2.80;100.00;100984.72;4990519;28;20033;-75
2022/12/22 06:50:41;;;;;;;26.40;15.73;;;;;;;-2.81;100.00;100997.22;4993948;28;20536;-74
2022/12/22 06:53:07;;;;;;;25.07;16.80;;;;;;;-2.79;100.00;100984.00;4959528;28;20107;-74
2022/12/22 06:55:34;;;;;;;30.23;15.23;;;;;;;-2.67;100.00;100993.53;5010422;28;20052;-73
2022/12/22 06:57:59;;;;;;;29.93;16.83;;;;;;;-2.60;100.00;100991.75;4960138;28;20128;-73
2022/12/22 07:00:25;;;;;;;28.30;16.87;;;;;;;-2.55;100.00;100997.25;5010826;28;20102;-73
2022/12/22 07:02:50;;;;;;;31.37;17.10;;;;;;;-2.52;100.00;100999.19;5010803;28;20036;-74
2022/12/22 07:05:15;;;;;;;27.13;16.60;;;;;;;-2.46;100.00;101003.19;5011185;28;20045;-74
2022/12/22 07:07:41;;;;;;;28.47;17.73;;;;;;;-2.37;100.00;101005.72;5011387;28;20524;-74
2022/12/22 07:10:07;;;;;;;28.10;16.23;;;;;;;-2.29;100.00;100998.91;5011107;28;20402;-73
2022/12/22 07:12:32;;;;;;;35.17;17.83;;;;;;;-2.46;100.00;100957.69;5010767;28;20401;-74
2022/12/22 07:14:58;;;;;;;33.53;18.40;;;;;;;-2.14;100.00;101007.94;5010655;28;20042;-75
2022/12/22 07:17:23;;;;;;;28.20;16.87;;;;;;;-2.08;100.00;100999.16;5010438;28;20787;-73
2022/12/22 07:19:49;;;;;;;33.03;18.30;;;;;;;-2.07;100.00;101003.47;5010969;28;20040;-74
2022/12/22 07:22:14;;;;;;;29.03;17.80;;;;;;;-2.25;100.00;100955.44;5010566;28;20030;-73
2022/12/22 07:24:39;;;;;;;35.33;20.73;;;;;;;-1.92;100.00;100999.88;5010946;28;20037;-73
2022/12/22 07:27:05;;;;;;;30.80;19.63;;;;;;;-1.81;100.00;101005.97;5010943;28;20481;-73
2022/12/22 07:29:30;;;;;;;34.03;20.27;;;;;;;-1.84;100.00;101009.09;5010589;28;20038;-73
2022/12/22 07:31:56;;;;;;;36.13;20.27;;;;;;;-1.75;100.00;101001.47;5010642;28;20037;-73
2022/12/22 07:34:21;;;;;;;36.77;21.47;;;;;;;-1.78;100.00;100993.63;5010822;28;20476;-73
2022/12/22 07:36:47;;;;;;;38.77;22.90;;;;;;;-1.50;100.00;101003.78;5010643;28;20544;-74
2022/12/22 07:39:12;;;;;;;39.60;21.87;;;;;;;-1.34;100.00;101003.59;5010547;28;20040;-75
2022/12/22 07:44:22;;;;;;;39.73;24.33;;;;;;;-1.13;100.00;100992.00;5010167;28;20093;-73
2022/12/22 07:46:48;;;;;;;36.77;23.77;;;;;;;-1.09;100.00;100996.59;5013330;28;20480;-74
2022/12/22 07:51:58;;;;;;;36.97;23.53;;;;;;;-0.74;100.00;100991.31;5014381;28;20143;-74
2022/12/22 07:54:24;;;;;;;39.07;23.97;;;;;;;-0.71;100.00;100995.78;5014289;28;20053;-77
2022/12/22 07:56:50;;;;;;;37.73;22.93;;;;;;;-0.67;100.00;100985.19;5014099;28;20037;-77
2022/12/22 07:59:16;;;;;;;40.33;24.87;;;;;;;-0.73;100.00;100975.34;4996619;28;20033;-76
2022/12/22 08:01:41;;;;;;;41.33;24.67;;;;;;;-0.82;100.00;100972.88;5014040;28;20184;-76
2022/12/22 08:04:08;;;;;;;43.20;24.27;;;;;;;-0.68;100.00;100981.72;5014157;28;20116;-73
2022/12/22 08:06:34;;;;;;;41.00;26.13;;;;;;;-0.71;100.00;100975.47;5014009;28;20048;-75
2022/12/22 08:09:01;;;;;;;53.93;30.00;;;;;;;-0.66;100.00;100966.69;5013922;28;20109;-75
2022/12/22 08:11:26;;;;;;;45.93;27.50;;;;;;;-0.49;100.00;100973.22;5014014;28;20109;-75
2022/12/22 08:13:52;;;;;;;45.83;28.87;;;;;;;-0.51;100.00;100965.50;5013763;28;20128;-75
2022/12/22 08:16:19;;;;;;;43.33;28.33;;;;;;;-0.29;100.00;100971.59;5013920;28;20100;-75
2022/12/22 08:18:44;;;;;;;49.03;30.07;;;;;;;-0.28;100.00;100958.16;5013802;28;20145;-75
2022/12/22 08:21:10;;;;;;;51.87;30.20;;;;;;;-0.27;100.00;100970.97;5013718;28;20069;-75
2022/12/22 08:23:35;;;;;;;45.73;28.77;;;;;;;-0.26;100.00;100934.69;5013682;28;20116;-75
2022/12/22 08:26:12;;;;;;;45.00;28.97;;;;;;;0.09;100.00;100963.91;5013399;28;20060;-75
2022/12/22 08:28:43;;;;;;;44.10;28.60;;;;;;;0.15;100.00;100961.91;5013827;28;20033;-74
2022/12/22 08:31:09;;;;;;;44.97;28.37;;;;;;;-0.39;100.00;100887.03;5013765;28;20132;-75
2022/12/22 08:33:34;;;;;;;43.47;26.60;;;;;;;0.04;100.00;100963.50;5013558;28;20059;-75
2022/12/22 08:36:01;;;;;;;45.00;27.90;;;;;;;-0.06;100.00;100958.38;4996040;28;20092;-74
2022/12/22 08:38:26;;;;;;;41.90;26.77;;;;;;;-0.08;100.00;100955.69;5013668;28;20049;-74
2022/12/22 08:40:52;;;;;;;42.87;26.77;;;;;;;-0.18;100.00;100909.97;5013235;28;20030;-74
2022/12/22 08:43:20;;;;;;;47.67;28.73;;;;;;;0.19;100.00;100952.88;5013368;28;20175;-74
2022/12/22 08:45:45;;;;;;;44.03;27.97;;;;;;;0.21;100.00;100937.00;5008245;28;20044;-74
2022/12/22 08:48:11;;;;;;;90.70;41.03;;;;;;;0.31;100.00;100936.16;5013215;28;20029;-74
2022/12/22 08:50:36;;;;;;;46.97;30.60;;;;;;;0.44;100.00;100936.44;5013393;28;20033;-74
2022/12/22 08:53:07;;;;;;;46.70;29.47;;;;;;;0.52;100.00;100938.75;4930530;28;20042;-74
2022/12/22 08:55:32;;;;;;;71.43;38.90;;;;;;;0.32;100.00;100894.75;5013015;28;20105;-74
2022/12/22 08:57:58;;;;;;;82.60;43.43;;;;;;;0.70;100.00;100925.06;5011859;28;20492;-74
2022/12/22 09:00:24;;;;;;;46.67;30.40;;;;;;;0.78;100.00;100908.78;5013089;28;20500;-74
2022/12/22 09:02:50;;;;;;;50.03;31.50;;;;;;;0.96;100.00;100904.34;5013084;28;20057;-74
2022/12/22 09:05:19;;;;;;;48.93;31.90;;;;;;;1.12;100.00;100900.50;5012937;28;20040;-74
2022/12/22 09:07:46;;;;;;;48.40;31.67;;;;;;;1.21;100.00;100905.44;5012820;28;20040;-74
2022/12/22 09:10:11;;;;;;;46.07;31.57;;;;;;;1.27;100.00;100900.84;5012990;28;20030;-74
2022/12/22 09:12:40;;;;;;;50.97;34.37;;;;;;;1.35;100.00;100891.31;5012722;28;20034;-75
2022/12/22 09:15:07;;;;;;;49.67;33.10;;;;;;;1.55;100.00;100892.91;5012813;28;20416;-76
2022/12/22 09:17:34;;;;;;;51.53;33.17;;;;;;;1.39;100.00;100845.88;5012916;28;20034;-76
2022/12/22 09:20:00;;;;;;;45.47;31.23;;;;;;;1.82;100.00;100888.22;5012758;28;20091;-74
2022/12/22 09:22:26;;;;;;;51.47;31.43;;;;;;;1.69;100.00;100843.09;5012625;28;20117;-74
2022/12/22 09:24:51;;;;;;;50.37;31.67;;;;;;;2.04;100.00;100883.16;5012786;28;20457;-74
2022/12/22 09:27:16;;;;;;;46.70;31.63;;;;;;;2.12;100.00;100878.66;5012766;28;20034;-73
2022/12/22 09:29:42;;;;;;;48.03;31.40;;;;;;;2.16;100.00;100880.69;5012537;28;20463;-77
2022/12/22 09:32:07;;;;;;;48.90;32.83;;;;;;;2.15;100.00;100876.34;5012584;28;20036;-75
2022/12/22 09:34:33;;;;;;;50.13;31.95;;;;;;;2.08;100.00;100826.56;5012526;28;20057;-76
2022/12/22 09:36:58;;;;;;;48.50;33.22;;;;;;;2.49;100.00;100861.97;5012194;28;20036;-76
2022/12/22 09:39:24;;;;;;;48.92;32.90;;;;;;;2.66;100.00;100853.03;5012430;28;20484;-74
2022/12/22 09:41:54;;;;;;;45.72;31.45;;;;;;;2.45;100.00;100808.13;5012505;28;20088;-74
2022/12/22 09:44:26;;;;;;;55.22;32.38;;;;;;;2.86;100.00;100862.16;5012185;28;20053;-74
2022/12/22 09:46:54;;;;;;;49.70;32.92;;;;;;;2.83;100.00;100840.66;5012338;28;20037;-74
2022/12/22 09:49:21;;;;;;;51.05;33.63;;;;;;;2.89;100.00;100842.00;5012237;28;20025;-73
2022/12/22 09:51:51;;;;;;;45.60;31.38;;;;;;;2.80;100.00;100813.25;5012005;28;20046;-73
2022/12/22 09:54:18;;;;;;;47.75;30.52;;;;;;;2.89;100.00;100825.81;5012083;28;20072;-73
2022/12/22 09:56:43;;;;;;;44.90;30.95;;;;;;;2.99;100.00;100818.06;5011937;28;20033;-74
2022/12/22 09:59:14;;;;;;;45.63;32.20;;;;;;;3.34;100.00;100827.38;5011940;28;20480;-73
2022/12/22 10:02:14;;;;;;;45.13;29.60;;;;;;;3.56;100.00;100831.44;5012054;28;20129;-73
2022/12/22 10:05:18;;;;;;;40.88;29.23;;;;;;;3.68;100.00;100831.44;5011906;28;20052;-73
2022/12/22 10:07:43;;;;;;;47.10;31.83;;;;;;;3.82;100.00;100824.75;4930779;29;20129;-73
2022/12/22 10:10:23;;;;;;;46.25;30.70;;;;;;;3.61;100.00;100781.59;4931515;29;20826;-73
2022/12/22 10:12:49;;;;;;;47.40;32.20;;;;;;;3.98;100.00;100825.03;4928985;29;20119;-74
2022/12/22 10:15:14;;;;;;;44.70;30.90;;;;;;;4.09;100.00;100809.53;4931541;29;20175;-73
2022/12/22 10:17:40;;;;;;;43.78;29.67;;;;;;;4.19;100.00;100815.38;4930135;29;20643;-74
2022/12/22 10:20:26;;;;;;;44.38;30.25;;;;;;;4.35;100.00;100804.53;4931359;29;20042;-73
2022/12/22 10:23:11;;;;;;;49.58;30.83;;;;;;;4.31;100.00;100811.88;4930961;29;20031;-73
2022/12/22 10:25:49;;;;;;;45.50;29.85;;;;;;;4.32;100.00;100788.09;4912688;29;20067;-75
2022/12/22 10:28:21;;;;;;;50.55;31.13;;;;;;;4.14;100.00;100808.22;4912578;29;20167;-74
2022/12/22 10:30:47;;;;;;;47.20;30.27;;;;;;;4.24;100.00;100795.25;4912736;29;20126;-75
2022/12/22 10:33:14;;;;;;;44.63;29.80;;;;;;;4.20;100.00;100752.41;4930172;29;20812;-75
2022/12/22 10:35:43;;;;;;;42.95;29.27;;;;;;;4.54;100.00;100786.19;4918537;29;20036;-73
2022/12/22 10:38:17;;;;;;;39.42;26.50;;;;;;;4.57;100.00;100782.06;4930432;29;20116;-72
2022/12/22 10:40:46;;;;;;;47.88;27.42;;;;;;;4.49;100.00;100779.88;4930505;29;20023;-72
2022/12/22 10:43:25;;;;;;;39.33;26.87;;;;;;;4.59;100.00;100768.59;4938391;28;20040;-72
2022/12/22 10:45:52;;;;;;;38.28;23.85;;;;;;;4.74;100.00;100778.06;4990311;28;20803;-72
2022/12/22 10:48:25;;;;;;;35.97;25.10;;;;;;;4.64;100.00;100725.44;4990957;28;20053;-72
2022/12/22 10:50:51;;;;;;;38.38;25.17;;;;;;;5.00;100.00;100757.59;5007268;28;20019;-73
2022/12/22 10:53:17;;;;;;;36.85;25.33;;;;;;;4.98;100.00;100751.50;4943012;28;20053;-72
2022/12/22 10:55:43;;;;;;;34.10;24.23;;;;;;;4.72;100.00;100725.94;4957828;28;20034;-72
2022/12/22 10:58:08;;;;;;;40.33;26.23;;;;;;;4.93;100.00;100754.56;4990330;28;20029;-72
2022/12/22 11:00:34;;;;;;;35.50;24.15;;;;;;;4.89;100.00;100738.13;4990567;28;20037;-72
2022/12/22 11:03:01;;;;;;;33.65;22.77;;;;;;;4.93;100.00;100732.41;4992237;28;20030;-71
2022/12/22 11:05:27;;;;;;;33.75;22.55;;;;;;;4.91;100.00;100744.25;5003498;28;20063;-73
2022/12/22 11:07:54;;;;;;;30.58;20.45;;;;;;;5.00;100.00;100744.81;5005695;28;20026;-73
2022/12/22 11:10:46;;;;;;;30.73;19.77;;;;;;;5.12;100.00;100737.03;5005368;28;20395;-72
2022/12/22 11:13:45;;;;;;;30.27;20.55;;;;;;;5.22;100.00;100730.84;4965926;28;20050;-73
2022/12/22 11:16:34;;;;;;;31.20;19.45;;;;;;;5.23;100.00;100730.03;4998442;28;20041;-73
2022/12/22 11:19:16;;;;;;;31.98;22.10;;;;;;;5.16;100.00;100731.31;5010602;28;20017;-72
2022/12/22 11:21:58;;;;;;;28.98;18.30;;;;;;;4.81;100.00;100683.94;5009603;28;20081;-73
2022/12/22 11:24:36;;;;;;;27.98;18.40;;;;;;;5.27;100.00;100731.09;4990489;28;20038;-72
2022/12/22 11:27:35;;;;;;;29.63;19.23;;;;;;;5.37;100.00;100725.78;4990192;28;20763;-73
2022/12/22 11:30:27;;;;;;;31.90;21.50;;;;;;;5.51;100.00;100716.38;4990499;28;20072;-73
2022/12/22 11:32:55;;;;;;;34.85;23.48;;;;;;;5.54;100.00;100716.56;4893098;29;20036;-73
2022/12/22 11:35:47;;;;;;;34.92;22.15;;;;;;;5.49;100.00;100712.84;4892316;29;20048;-73
2022/12/22 11:38:51;;;;;;;34.97;21.25;;;;;;;5.51;100.00;100713.81;4892407;29;20040;-72
2022/12/22 11:41:41;;;;;;;32.55;21.17;;;;;;;5.57;100.00;100703.97;4892320;29;20127;-72
2022/12/22 11:44:25;;;;;;;30.58;21.20;;;;;;;5.46;100.00;100702.41;4890346;29;20536;-73
2022/12/22 11:47:02;;;;;;;31.13;20.50;;;;;;;5.46;100.00;100676.81;4892106;29;20864;-73
2022/12/22 11:49:33;;;;;;;29.40;21.15;;;;;;;5.61;100.00;100693.09;4892288;29;20076;-73
2022/12/22 11:52:20;;;;;;;39.22;25.52;;;;;;;5.72;100.00;100686.06;4892022;29;20077;-74
2022/12/22 11:55:04;;;;;;;31.83;20.17;;;;;;;5.52;100.00;100687.44;4892601;29;20047;-75
2022/12/22 11:57:38;;;;;;;33.90;19.60;;;;;;;5.59;100.00;100683.56;4892660;29;20061;-73
2022/12/22 12:00:17;;;;;;;33.13;20.40;;;;;;;5.63;100.00;100681.28;4892779;29;20048;-71
2022/12/22 12:03:01;;;;;;;30.42;20.27;;;;;;;5.68;100.00;100676.41;4891933;29;20509;-71
2022/12/22 12:05:26;;;;;;;26.90;18.58;;;;;;;5.76;100.00;100682.00;4893683;29;20068;-73
2022/12/22 12:08:40;;;;;;;29.27;20.42;;;;;;;5.85;100.00;100672.31;4892451;29;20062;-72
2022/12/22 12:11:37;;;;;;;29.42;19.58;;;;;;;5.83;100.00;100667.09;4985683;28;20582;-74
2022/12/22 12:14:24;;;;;;;30.30;20.23;;;;;;;5.62;100.00;100641.09;4987682;28;20042;-75
2022/12/22 12:16:58;;;;;;;28.65;20.00;;;;;;;5.65;100.00;100636.13;4992221;28;20049;-73
2022/12/22 12:20:01;;;;;;;27.15;19.58;;;;;;;5.91;100.00;100674.34;5007535;28;20519;-74
2022/12/22 12:22:57;;;;;;;30.42;19.08;;;;;;;5.69;100.00;100633.75;5010029;28;20105;-74
2022/12/22 12:25:35;;;;;;;27.50;19.35;;;;;;;5.77;100.00;100635.09;5003489;28;20882;-74
2022/12/22 12:28:14;;;;;;;26.35;18.52;;;;;;;6.02;100.00;100670.78;5001565;28;20053;-73
2022/12/22 12:30:54;;;;;;;24.67;16.92;;;;;;;6.10;100.00;100666.97;5009619;28;20022;-76
2022/12/22 12:33:29;;;;;;;25.67;17.13;;;;;;;6.15;100.00;100667.22;4982488;28;20037;-72
2022/12/22 12:36:16;;;;;;;27.05;17.33;;;;;;;6.19;100.00;100656.34;5002392;28;20036;-72
2022/12/22 12:38:44;;;;;;;28.33;17.33;;;;;;;6.18;100.00;100657.16;5013033;28;20038;-72
2022/12/22 12:41:22;;;;;;;27.50;19.02;;;;;;;6.21;100.00;100651.34;5013364;28;20117;-72
2022/12/22 12:43:51;;;;;;;35.15;21.10;;;;;;;6.02;100.00;100618.63;5013112;28;20132;-72
2022/12/22 12:46:52;;;;;;;29.60;18.70;;;;;;;6.21;100.00;100659.91;5013238;28;20108;-72
2022/12/22 12:49:33;;;;;;;28.73;18.27;;;;;;;6.23;100.00;100671.13;5011035;28;20026;-71
2022/12/22 12:52:09;;;;;;;27.58;17.92;;;;;;;6.24;100.00;100667.78;4998183;28;20022;-71
2022/12/22 12:54:43;;;;;;;22.90;16.60;;;;;;;6.25;100.00;100666.09;4995238;28;20053;-72
2022/12/22 12:57:09;;;;;;;30.42;18.23;;;;;;;6.29;100.00;100656.09;5012276;28;20060;-73
2022/12/22 12:59:41;;;;;;;25.48;17.52;;;;;;;6.28;100.00;100659.47;5012773;28;20038;-73
2022/12/22 13:02:38;;;;;;;29.40;19.25;;;;;;;6.26;100.00;100660.16;5013151;28;20026;-72
2022/12/22 13:05:06;;;;;;;31.00;19.67;;;;;;;6.29;100.00;100660.31;5012439;28;20026;-73
2022/12/22 13:08:09;;;;;;;26.55;18.33;;;;;;;6.30;100.00;100662.09;5012170;28;20535;-73
2022/12/22 13:10:55;;;;;;;28.42;18.63;;;;;;;6.29;100.00;100653.53;5012731;28;20030;-73
2022/12/22 13:13:21;;;;;;;28.08;19.23;;;;;;;6.27;100.00;100660.25;4913639;29;20056;-74
2022/12/22 13:15:48;;;;;;;24.73;18.50;;;;;;;6.28;100.00;100663.69;4913170;29;20044;-73
2022/12/22 13:18:27;;;;;;;27.92;19.45;;;;;;;6.03;100.00;100628.97;4913837;29;20103;-73
2022/12/22 13:21:25;;;;;;;27.73;19.45;;;;;;;6.30;100.00;100662.09;4913549;29;20186;-73
2022/12/22 13:23:54;;;;;;;30.05;18.85;;;;;;;6.34;100.00;100660.59;4856814;29;20132;-73
2022/12/22 13:26:26;;;;;;;29.70;21.15;;;;;;;6.32;100.00;100666.53;4856976;29;20038;-72
2022/12/22 13:29:10;;;;;;;30.40;19.83;;;;;;;6.24;100.00;100652.41;4857137;29;20451;-73
2022/12/22 13:31:44;;;;;;;32.20;19.95;;;;;;;6.21;100.00;100657.34;4857090;29;20068;-73
2022/12/22 13:34:32;;;;;;;32.42;19.95;;;;;;;6.21;100.00;100654.78;4857192;29;20121;-72
2022/12/22 13:37:01;;;;;;;32.63;18.90;;;;;;;6.22;100.00;100651.41;4857311;29;20120;-72
2022/12/22 13:39:26;;;;;;;63.90;39.38;;;;;;;6.20;100.00;100653.00;4857125;29;20088;-72
2022/12/22 13:41:53;;;;;;;34.28;22.85;;;;;;;6.13;100.00;100651.78;4856804;29;20467;-79
2022/12/22 13:44:30;;;;;;;30.98;20.70;;;;;;;6.07;100.00;100643.72;4853244;29;20452;-76
2022/12/22 13:47:04;;;;;;;32.72;19.98;;;;;;;6.12;100.00;100651.69;4854724;29;20040;-77
2022/12/22 13:49:32;;;;;;;31.52;19.38;;;;;;;5.89;100.00;100607.63;4867455;29;20040;-76
2022/12/22 13:52:00;;;;;;;30.48;20.10;;;;;;;6.02;100.00;100641.69;4919489;28;20050;-77
2022/12/22 13:54:41;;;;;;;33.83;19.77;;;;;;;6.08;100.00;100642.94;4950933;28;20040;-77
2022/12/22 13:57:16;;;;;;;29.60;19.13;;;;;;;6.06;100.00;100635.97;4948842;28;20513;-77
2022/12/22 13:59:44;;;;;;;33.60;20.00;;;;;;;5.81;100.00;100624.25;4955121;28;20043;-77
2022/12/22 14:02:10;;;;;;;31.65;19.83;;;;;;;5.78;100.00;100639.41;5011950;28;20030;-76
2022/12/22 14:04:39;;;;;;;33.75;20.27;;;;;;;5.77;100.00;100635.97;5011132;28;20042;-76
2022/12/22 14:07:18;;;;;;;32.87;20.73;;;;;;;5.84;100.00;100629.53;5011710;28;20014;-77
2022/12/22 14:09:45;;;;;;;29.15;19.63;;;;;;;5.81;100.00;100614.00;5011833;28;20121;-76
2022/12/22 14:12:22;;;;;;;33.20;20.10;;;;;;;5.91;100.00;100616.28;5011559;28;20081;-77
2022/12/22 14:14:50;;;;;;;33.85;21.05;;;;;;;5.95;100.00;100630.16;5011791;28;20080;-77
2022/12/22 14:17:24;;;;;;;40.75;21.00;;;;;;;5.91;100.00;100618.84;5011948;28;20033;-76
2022/12/22 14:19:52;;;;;;;33.20;21.20;;;;;;;5.93;100.00;100627.53;5011727;28;20038;-76
2022/12/22 14:22:23;;;;;;;29.85;19.60;;;;;;;5.88;100.00;100612.66;5011980;28;20026;-76
2022/12/22 14:24:54;;;;;;;35.88;19.92;;;;;;;5.91;100.00;100628.22;5011617;28;20037;-76
2022/12/22 14:27:36;;;;;;;31.17;19.75;;;;;;;5.85;100.00;100620.19;5011870;28;20034;-76
2022/12/22 14:30:05;;;;;;;31.75;20.98;;;;;;;5.57;100.00;100591.28;5011588;28;20025;-76
2022/12/22 14:32:53;;;;;;;33.60;20.00;;;;;;;5.81;100.00;100629.38;5011564;28;20030;-76
2022/12/22 14:35:19;;;;;;;31.10;18.85;;;;;;;5.62;100.00;100599.19;5011508;28;20026;-77
2022/12/22 14:37:45;;;;;;;32.85;22.35;;;;;;;5.79;100.00;100631.81;5009778;28;20025;-77
2022/12/22 14:40:33;;;;;;;44.33;21.92;;;;;;;5.85;100.00;100623.63;5007281;28;20110;-76
2022/12/22 14:43:02;;;;;;;43.15;25.33;;;;;;;5.84;100.00;100629.53;5011057;28;20472;-76
2022/12/22 14:45:27;;;;;;;44.83;25.25;;;;;;;5.46;100.00;100570.13;5011441;28;20077;-76
2022/12/22 14:47:54;;;;;;;47.70;23.63;;;;;;;5.82;100.00;100629.44;5011155;28;20517;-76
2022/12/22 14:50:28;;;;;;;37.72;21.52;;;;;;;5.80;100.00;100619.91;5011662;28;20055;-76
2022/12/22 14:52:58;;;;;;;31.35;19.50;;;;;;;5.80;100.00;100631.03;5011028;28;20022;-76
2022/12/22 14:55:27;;;;;;;42.13;18.80;;;;;;;5.78;100.00;100636.84;5010877;28;20096;-76
2022/12/22 14:58:05;;;;;;;42.95;20.13;;;;;;;5.72;100.00;100622.03;5010585;28;20133;-76
2022/12/22 15:00:34;;;;;;;41.95;18.08;;;;;;;5.75;100.00;100627.31;4991459;28;20113;-76
2022/12/22 15:03:04;;;;;;;49.20;18.23;;;;;;;5.73;100.00;100634.03;4991278;28;20106;-75